sensor_id;sensor_type;location;lat;lon;timestamp;temperature;humidity
9925;DHT22;5001;51.674;7.868;2023-05-20T00:01:05;13.30;99.90
9925;DHT22;5001;51.674;7.868;2023-05-20T00:03:33;13.30;99.90
9925;DHT22;5001;51.674;7.868;2023-05-20T00:06:02;13.40;99.90
9925;DHT22;5001;51.674;7.868;2023-05-20T00:08:29;13.30;99.90
9925;DHT22;5001;51.674;7.868;2023-05-20T00:10:56;13.20;99.90
9925;DHT22;5001;51.674;7.868;2023-05-20T00:13:23;13.20;99.90
9925;DHT22;5001;51.674;7.868;2023-05-20T00:15:51;13.20;99.90
9925;DHT22;5001;51.674;7.868;2023-05-20T00:18:19;13.10;99.90
9925;DHT22;5001;51.674;7.868;2023-05-20T00:20:46;13.10;99.90
9925;DHT22;5001;51.674;7.868;2023-05-20T00:23:13;13.00;99.90
9925;DHT22;5001;51.674;7.868;2023-05-20T00:25:40;12.90;99.90
9925;DHT22;5001;51.674;7.868;2023-05-20T00:28:07;12.80;99.90
9925;DHT22;5001;51.674;7.868;2023-05-20T00:30:34;12.70;99.90
9925;DHT22;5001;51.674;7.868;2023-05-20T00:33:01;12.60;99.90
9925;DHT22;5001;51.674;7.868;2023-05-20T00:35:28;12.50;99.90
9925;DHT22;5001;51.674;7.868;2023-05-20T00:37:55;12.50;99.90
9925;DHT22;5001;51.674;7.868;2023-05-20T00:40:22;12.40;99.90
9925;DHT22;5001;51.674;7.868;2023-05-20T00:42:50;12.40;99.90
9925;DHT22;5001;51.674;7.868;2023-05-20T00:45:18;12.30;99.90
9925;DHT22;5001;51.674;7.868;2023-05-20T00:47:45;12.30;99.90
9925;DHT22;5001;51.674;7.868;2023-05-20T00:50:12;12.20;99.90
9925;DHT22;5001;51.674;7.868;2023-05-20T00:52:39;12.20;99.90
9925;DHT22;5001;51.674;7.868;2023-05-20T00:55:10;12.20;99.90
9925;DHT22;5001;51.674;7.868;2023-05-20T00:57:37;12.20;99.90
9925;DHT22;5001;51.674;7.868;2023-05-20T01:00:04;12.20;99.90
9925;DHT22;5001;51.674;7.868;2023-05-20T01:02:35;12.20;99.90
9925;DHT22;5001;51.674;7.868;2023-05-20T01:05:02;12.20;99.90
9925;DHT22;5001;51.674;7.868;2023-05-20T01:07:30;12.20;99.90
9925;DHT22;5001;51.674;7.868;2023-05-20T01:09:58;12.20;99.90
9925;DHT22;5001;51.674;7.868;2023-05-20T01:12:27;12.20;99.90
9925;DHT22;5001;51.674;7.868;2023-05-20T01:15:10;12.30;99.90
9925;DHT22;5001;51.674;7.868;2023-05-20T01:17:45;12.30;99.90
9925;DHT22;5001;51.674;7.868;2023-05-20T01:20:14;12.20;99.90
9925;DHT22;5001;51.674;7.868;2023-05-20T01:25:15;12.20;99.90
9925;DHT22;5001;51.674;7.868;2023-05-20T01:27:45;12.20;99.90
9925;DHT22;5001;51.674;7.868;2023-05-20T01:30:12;12.20;99.90
9925;DHT22;5001;51.674;7.868;2023-05-20T01:33:04;12.20;99.90
9925;DHT22;5001;51.674;7.868;2023-05-20T01:35:33;12.10;99.90
9925;DHT22;5001;51.674;7.868;2023-05-20T01:38:03;12.10;99.90
9925;DHT22;5001;51.674;7.868;2023-05-20T01:40:33;12.10;99.90
9925;DHT22;5001;51.674;7.868;2023-05-20T01:43:01;12.10;99.90
9925;DHT22;5001;51.674;7.868;2023-05-20T01:45:30;12.10;99.90
9925;DHT22;5001;51.674;7.868;2023-05-20T01:47:58;12.10;99.90
9925;DHT22;5001;51.674;7.868;2023-05-20T01:50:25;12.10;99.90
9925;DHT22;5001;51.674;7.868;2023-05-20T01:52:52;12.10;99.90
9925;DHT22;5001;51.674;7.868;2023-05-20T01:55:19;12.20;99.90
9925;DHT22;5001;51.674;7.868;2023-05-20T01:57:47;12.10;99.90
9925;DHT22;5001;51.674;7.868;2023-05-20T02:00:14;12.10;99.90
9925;DHT22;5001;51.674;7.868;2023-05-20T02:02:43;12.10;99.90
9925;DHT22;5001;51.674;7.868;2023-05-20T02:05:11;12.00;99.90
9925;DHT22;5001;51.674;7.868;2023-05-20T02:07:41;12.10;99.90
9925;DHT22;5001;51.674;7.868;2023-05-20T02:10:08;12.00;99.90
9925;DHT22;5001;51.674;7.868;2023-05-20T02:12:36;12.00;99.90
9925;DHT22;5001;51.674;7.868;2023-05-20T02:15:04;12.00;99.90
9925;DHT22;5001;51.674;7.868;2023-05-20T02:17:31;12.00;99.90
9925;DHT22;5001;51.674;7.868;2023-05-20T02:19:59;12.00;99.90
9925;DHT22;5001;51.674;7.868;2023-05-20T02:22:26;11.90;99.90
9925;DHT22;5001;51.674;7.868;2023-05-20T02:24:53;11.90;99.90
9925;DHT22;5001;51.674;7.868;2023-05-20T02:27:20;11.80;99.90
9925;DHT22;5001;51.674;7.868;2023-05-20T02:29:47;11.80;99.90
9925;DHT22;5001;51.674;7.868;2023-05-20T02:32:14;11.80;99.90
9925;DHT22;5001;51.674;7.868;2023-05-20T02:34:41;11.80;99.90
9925;DHT22;5001;51.674;7.868;2023-05-20T02:37:08;11.80;99.90
9925;DHT22;5001;51.674;7.868;2023-05-20T02:39:36;11.80;99.90
9925;DHT22;5001;51.674;7.868;2023-05-20T02:42:03;11.80;99.90
9925;DHT22;5001;51.674;7.868;2023-05-20T02:44:30;11.80;99.90
9925;DHT22;5001;51.674;7.868;2023-05-20T02:46:57;11.80;99.90
9925;DHT22;5001;51.674;7.868;2023-05-20T02:49:25;11.70;99.90
9925;DHT22;5001;51.674;7.868;2023-05-20T02:51:52;11.70;99.90
9925;DHT22;5001;51.674;7.868;2023-05-20T02:54:19;11.70;99.90
9925;DHT22;5001;51.674;7.868;2023-05-20T02:56:46;11.70;99.90
9925;DHT22;5001;51.674;7.868;2023-05-20T02:59:13;11.70;99.90
9925;DHT22;5001;51.674;7.868;2023-05-20T03:01:40;11.70;99.90
9925;DHT22;5001;51.674;7.868;2023-05-20T03:04:08;11.70;99.90
9925;DHT22;5001;51.674;7.868;2023-05-20T03:06:36;11.60;99.90
9925;DHT22;5001;51.674;7.868;2023-05-20T03:09:04;11.60;99.90
9925;DHT22;5001;51.674;7.868;2023-05-20T03:11:31;11.60;99.90
9925;DHT22;5001;51.674;7.868;2023-05-20T03:13:58;11.60;99.90
9925;DHT22;5001;51.674;7.868;2023-05-20T03:16:25;11.60;99.90
9925;DHT22;5001;51.674;7.868;2023-05-20T03:18:54;11.60;99.90
9925;DHT22;5001;51.674;7.868;2023-05-20T03:21:21;11.60;99.90
9925;DHT22;5001;51.674;7.868;2023-05-20T03:23:50;11.50;99.90
9925;DHT22;5001;51.674;7.868;2023-05-20T03:26:17;11.60;99.90
9925;DHT22;5001;51.674;7.868;2023-05-20T03:28:45;11.50;99.90
9925;DHT22;5001;51.674;7.868;2023-05-20T03:31:12;11.50;99.90
9925;DHT22;5001;51.674;7.868;2023-05-20T03:33:39;11.40;99.90
9925;DHT22;5001;51.674;7.868;2023-05-20T03:36:06;11.50;99.90
9925;DHT22;5001;51.674;7.868;2023-05-20T03:38:34;11.50;99.90
9925;DHT22;5001;51.674;7.868;2023-05-20T03:41:01;11.50;99.90
9925;DHT22;5001;51.674;7.868;2023-05-20T03:43:28;11.50;99.90
9925;DHT22;5001;51.674;7.868;2023-05-20T03:45:55;11.50;99.90
9925;DHT22;5001;51.674;7.868;2023-05-20T03:48:22;11.60;99.90
9925;DHT22;5001;51.674;7.868;2023-05-20T03:50:49;11.60;99.90
9925;DHT22;5001;51.674;7.868;2023-05-20T03:53:16;11.60;99.90
9925;DHT22;5001;51.674;7.868;2023-05-20T03:55:45;11.60;99.90
9925;DHT22;5001;51.674;7.868;2023-05-20T03:58:13;11.70;99.90
9925;DHT22;5001;51.674;7.868;2023-05-20T04:00:41;11.90;99.90
9925;DHT22;5001;51.674;7.868;2023-05-20T04:03:09;11.90;99.90
9925;DHT22;5001;51.674;7.868;2023-05-20T04:05:36;11.90;99.90
9925;DHT22;5001;51.674;7.868;2023-05-20T04:08:11;11.90;99.90
9925;DHT22;5001;51.674;7.868;2023-05-20T04:10:42;12.00;99.90
9925;DHT22;5001;51.674;7.868;2023-05-20T04:13:11;12.00;99.90
9925;DHT22;5001;51.674;7.868;2023-05-20T04:15:38;12.00;99.90
9925;DHT22;5001;51.674;7.868;2023-05-20T04:18:07;12.00;99.90
9925;DHT22;5001;51.674;7.868;2023-05-20T04:20:36;12.00;99.90
9925;DHT22;5001;51.674;7.868;2023-05-20T04:23:04;12.00;99.90
9925;DHT22;5001;51.674;7.868;2023-05-20T04:25:31;12.10;99.90
9925;DHT22;5001;51.674;7.868;2023-05-20T04:27:59;12.40;99.90
9925;DHT22;5001;51.674;7.868;2023-05-20T04:30:26;12.80;99.90
9925;DHT22;5001;51.674;7.868;2023-05-20T04:32:53;13.50;99.90
9925;DHT22;5001;51.674;7.868;2023-05-20T04:35:21;14.00;99.90
9925;DHT22;5001;51.674;7.868;2023-05-20T04:37:54;14.50;99.90
9925;DHT22;5001;51.674;7.868;2023-05-20T04:40:22;14.70;99.90
9925;DHT22;5001;51.674;7.868;2023-05-20T04:42:49;14.60;99.90
9925;DHT22;5001;51.674;7.868;2023-05-20T04:45:17;14.70;99.90
9925;DHT22;5001;51.674;7.868;2023-05-20T04:47:44;14.90;99.90
9925;DHT22;5001;51.674;7.868;2023-05-20T04:50:12;15.30;99.90
9925;DHT22;5001;51.674;7.868;2023-05-20T04:52:40;15.20;99.90
9925;DHT22;5001;51.674;7.868;2023-05-20T04:55:10;15.50;99.90
9925;DHT22;5001;51.674;7.868;2023-05-20T04:57:41;15.50;99.90
9925;DHT22;5001;51.674;7.868;2023-05-20T05:00:10;15.50;99.90
9925;DHT22;5001;51.674;7.868;2023-05-20T05:02:39;15.80;99.90
9925;DHT22;5001;51.674;7.868;2023-05-20T05:05:07;15.90;99.90
9925;DHT22;5001;51.674;7.868;2023-05-20T05:07:34;15.90;99.90
9925;DHT22;5001;51.674;7.868;2023-05-20T05:10:02;16.20;99.90
9925;DHT22;5001;51.674;7.868;2023-05-20T05:12:30;16.60;99.90
9925;DHT22;5001;51.674;7.868;2023-05-20T05:14:58;17.10;99.90
9925;DHT22;5001;51.674;7.868;2023-05-20T05:17:26;17.10;99.90
9925;DHT22;5001;51.674;7.868;2023-05-20T05:19:56;17.10;99.90
9925;DHT22;5001;51.674;7.868;2023-05-20T05:22:24;17.20;99.90
9925;DHT22;5001;51.674;7.868;2023-05-20T05:24:51;17.40;99.90
9925;DHT22;5001;51.674;7.868;2023-05-20T05:27:18;16.90;99.90
9925;DHT22;5001;51.674;7.868;2023-05-20T05:29:45;17.70;99.90
9925;DHT22;5001;51.674;7.868;2023-05-20T05:32:12;17.80;99.90
9925;DHT22;5001;51.674;7.868;2023-05-20T05:34:39;18.40;99.90
9925;DHT22;5001;51.674;7.868;2023-05-20T05:37:06;18.20;99.90
9925;DHT22;5001;51.674;7.868;2023-05-20T05:39:34;17.40;99.90
9925;DHT22;5001;51.674;7.868;2023-05-20T05:42:04;17.40;99.90
9925;DHT22;5001;51.674;7.868;2023-05-20T05:44:32;17.60;99.90
9925;DHT22;5001;51.674;7.868;2023-05-20T05:46:59;17.70;99.90
9925;DHT22;5001;51.674;7.868;2023-05-20T05:49:26;18.00;99.90
9925;DHT22;5001;51.674;7.868;2023-05-20T05:51:54;18.20;99.90
9925;DHT22;5001;51.674;7.868;2023-05-20T05:54:21;18.60;99.90
9925;DHT22;5001;51.674;7.868;2023-05-20T05:56:50;18.10;99.90
9925;DHT22;5001;51.674;7.868;2023-05-20T05:59:18;17.10;99.90
9925;DHT22;5001;51.674;7.868;2023-05-20T06:01:45;16.50;99.90
9925;DHT22;5001;51.674;7.868;2023-05-20T06:04:13;16.10;99.90
9925;DHT22;5001;51.674;7.868;2023-05-20T06:06:41;15.70;99.90
9925;DHT22;5001;51.674;7.868;2023-05-20T06:09:08;15.40;99.90
9925;DHT22;5001;51.674;7.868;2023-05-20T06:11:35;15.10;99.90
9925;DHT22;5001;51.674;7.868;2023-05-20T06:14:02;15.10;99.90
9925;DHT22;5001;51.674;7.868;2023-05-20T06:16:30;15.00;99.90
9925;DHT22;5001;51.674;7.868;2023-05-20T06:18:58;14.80;99.90
9925;DHT22;5001;51.674;7.868;2023-05-20T06:21:31;14.60;99.90
9925;DHT22;5001;51.674;7.868;2023-05-20T06:23:58;14.40;99.90
9925;DHT22;5001;51.674;7.868;2023-05-20T06:26:25;14.50;99.90
9925;DHT22;5001;51.674;7.868;2023-05-20T06:28:52;14.50;99.90
9925;DHT22;5001;51.674;7.868;2023-05-20T06:31:20;14.60;99.90
9925;DHT22;5001;51.674;7.868;2023-05-20T06:33:48;14.50;99.90
9925;DHT22;5001;51.674;7.868;2023-05-20T06:36:16;14.50;99.90
9925;DHT22;5001;51.674;7.868;2023-05-20T06:38:43;14.40;99.90
9925;DHT22;5001;51.674;7.868;2023-05-20T06:41:13;14.50;99.90
9925;DHT22;5001;51.674;7.868;2023-05-20T06:43:40;14.40;99.90
9925;DHT22;5001;51.674;7.868;2023-05-20T06:46:33;14.30;99.90
9925;DHT22;5001;51.674;7.868;2023-05-20T06:49:04;14.30;99.90
9925;DHT22;5001;51.674;7.868;2023-05-20T06:51:33;14.30;99.90
9925;DHT22;5001;51.674;7.868;2023-05-20T06:54:01;14.10;99.90
9925;DHT22;5001;51.674;7.868;2023-05-20T06:56:29;14.30;99.90
9925;DHT22;5001;51.674;7.868;2023-05-20T06:58:57;14.30;99.90
9925;DHT22;5001;51.674;7.868;2023-05-20T07:01:25;14.20;99.90
9925;DHT22;5001;51.674;7.868;2023-05-20T07:03:52;14.20;99.90
9925;DHT22;5001;51.674;7.868;2023-05-20T07:06:19;14.10;99.90
9925;DHT22;5001;51.674;7.868;2023-05-20T07:08:47;14.10;99.90
9925;DHT22;5001;51.674;7.868;2023-05-20T07:11:14;14.30;99.90
9925;DHT22;5001;51.674;7.868;2023-05-20T07:13:41;14.40;99.90
9925;DHT22;5001;51.674;7.868;2023-05-20T07:16:08;14.50;99.90
9925;DHT22;5001;51.674;7.868;2023-05-20T07:18:38;14.60;99.90
9925;DHT22;5001;51.674;7.868;2023-05-20T07:21:06;14.70;99.90
9925;DHT22;5001;51.674;7.868;2023-05-20T07:23:54;14.50;99.90
9925;DHT22;5001;51.674;7.868;2023-05-20T07:26:21;14.40;99.90
9925;DHT22;5001;51.674;7.868;2023-05-20T07:28:48;14.30;99.90
9925;DHT22;5001;51.674;7.868;2023-05-20T07:31:15;14.40;99.90
9925;DHT22;5001;51.674;7.868;2023-05-20T07:33:43;14.20;99.90
9925;DHT22;5001;51.674;7.868;2023-05-20T07:36:11;14.50;99.90
9925;DHT22;5001;51.674;7.868;2023-05-20T07:38:40;14.50;99.90
9925;DHT22;5001;51.674;7.868;2023-05-20T07:41:22;14.60;99.90
9925;DHT22;5001;51.674;7.868;2023-05-20T07:43:49;14.50;99.90
9925;DHT22;5001;51.674;7.868;2023-05-20T07:46:17;14.40;99.90
9925;DHT22;5001;51.674;7.868;2023-05-20T07:48:46;14.60;99.90
9925;DHT22;5001;51.674;7.868;2023-05-20T07:51:14;14.60;99.90
9925;DHT22;5001;51.674;7.868;2023-05-20T07:53:41;14.70;99.90
9925;DHT22;5001;51.674;7.868;2023-05-20T07:56:08;14.70;99.90
9925;DHT22;5001;51.674;7.868;2023-05-20T07:58:36;14.60;99.90
9925;DHT22;5001;51.674;7.868;2023-05-20T08:01:04;14.60;99.90
9925;DHT22;5001;51.674;7.868;2023-05-20T08:03:31;14.80;99.90
9925;DHT22;5001;51.674;7.868;2023-05-20T08:06:11;15.20;99.90
9925;DHT22;5001;51.674;7.868;2023-05-20T08:08:40;15.10;99.90
9925;DHT22;5001;51.674;7.868;2023-05-20T08:11:16;15.10;99.90
9925;DHT22;5001;51.674;7.868;2023-05-20T08:13:43;15.30;99.90
9925;DHT22;5001;51.674;7.868;2023-05-20T08:16:10;15.80;99.90
9925;DHT22;5001;51.674;7.868;2023-05-20T08:18:40;15.80;99.90
9925;DHT22;5001;51.674;7.868;2023-05-20T08:21:08;15.80;99.90
9925;DHT22;5001;51.674;7.868;2023-05-20T08:23:38;15.60;99.90
9925;DHT22;5001;51.674;7.868;2023-05-20T08:26:06;16.20;99.90
9925;DHT22;5001;51.674;7.868;2023-05-20T08:28:36;16.20;99.90
9925;DHT22;5001;51.674;7.868;2023-05-20T08:31:04;16.40;99.90
9925;DHT22;5001;51.674;7.868;2023-05-20T08:33:32;16.60;99.90
9925;DHT22;5001;51.674;7.868;2023-05-20T08:35:59;16.30;99.90
9925;DHT22;5001;51.674;7.868;2023-05-20T08:38:27;15.80;99.90
9925;DHT22;5001;51.674;7.868;2023-05-20T08:40:55;16.00;99.90
9925;DHT22;5001;51.674;7.868;2023-05-20T08:43:24;16.20;99.90
9925;DHT22;5001;51.674;7.868;2023-05-20T08:45:51;16.60;99.90
9925;DHT22;5001;51.674;7.868;2023-05-20T08:48:22;16.50;99.90
9925;DHT22;5001;51.674;7.868;2023-05-20T08:50:50;16.80;99.90
9925;DHT22;5001;51.674;7.868;2023-05-20T08:53:21;16.80;99.90
9925;DHT22;5001;51.674;7.868;2023-05-20T08:55:58;16.60;99.90
9925;DHT22;5001;51.674;7.868;2023-05-20T08:58:29;17.10;99.90
9925;DHT22;5001;51.674;7.868;2023-05-20T09:00:56;17.00;99.90
9925;DHT22;5001;51.674;7.868;2023-05-20T09:03:24;16.80;99.90
9925;DHT22;5001;51.674;7.868;2023-05-20T09:05:52;17.00;99.90
9925;DHT22;5001;51.674;7.868;2023-05-20T09:08:24;17.20;99.90
9925;DHT22;5001;51.674;7.868;2023-05-20T09:10:55;17.80;99.90
9925;DHT22;5001;51.674;7.868;2023-05-20T09:13:23;18.00;99.90
9925;DHT22;5001;51.674;7.868;2023-05-20T09:15:50;17.70;99.90
9925;DHT22;5001;51.674;7.868;2023-05-20T09:18:17;18.00;99.90
9925;DHT22;5001;51.674;7.868;2023-05-20T09:20:47;18.60;99.90
9925;DHT22;5001;51.674;7.868;2023-05-20T09:23:18;19.10;99.90
9925;DHT22;5001;51.674;7.868;2023-05-20T09:25:48;19.10;99.90
9925;DHT22;5001;51.674;7.868;2023-05-20T09:28:23;19.70;99.90
9925;DHT22;5001;51.674;7.868;2023-05-20T09:30:58;19.90;99.90
9925;DHT22;5001;51.674;7.868;2023-05-20T09:33:27;19.30;99.90
9925;DHT22;5001;51.674;7.868;2023-05-20T09:36:07;18.90;99.90
9925;DHT22;5001;51.674;7.868;2023-05-20T09:38:38;18.40;99.90
9925;DHT22;5001;51.674;7.868;2023-05-20T09:41:11;18.70;99.90
9925;DHT22;5001;51.674;7.868;2023-05-20T09:43:41;19.20;99.90
9925;DHT22;5001;51.674;7.868;2023-05-20T09:46:08;19.50;99.90
9925;DHT22;5001;51.674;7.868;2023-05-20T09:48:36;19.70;99.90
9925;DHT22;5001;51.674;7.868;2023-05-20T09:51:04;19.90;99.90
9925;DHT22;5001;51.674;7.868;2023-05-20T09:53:32;19.90;99.90
9925;DHT22;5001;51.674;7.868;2023-05-20T09:55:59;19.60;99.90
9925;DHT22;5001;51.674;7.868;2023-05-20T09:58:28;19.90;99.90
9925;DHT22;5001;51.674;7.868;2023-05-20T10:00:55;19.60;99.90
9925;DHT22;5001;51.674;7.868;2023-05-20T10:03:22;19.20;99.90
9925;DHT22;5001;51.674;7.868;2023-05-20T10:22:07;20.50;99.90
9925;DHT22;5001;51.674;7.868;2023-05-20T10:24:40;20.30;99.90
9925;DHT22;5001;51.674;7.868;2023-05-20T10:27:13;20.30;99.90
9925;DHT22;5001;51.674;7.868;2023-05-20T10:29:59;20.50;99.90
9925;DHT22;5001;51.674;7.868;2023-05-20T10:32:31;19.70;99.90
9925;DHT22;5001;51.674;7.868;2023-05-20T10:35:01;19.30;99.90
9925;DHT22;5001;51.674;7.868;2023-05-20T10:37:41;19.40;99.90
9925;DHT22;5001;51.674;7.868;2023-05-20T10:40:11;20.20;99.90
9925;DHT22;5001;51.674;7.868;2023-05-20T10:42:38;20.30;99.90
9925;DHT22;5001;51.674;7.868;2023-05-20T10:45:07;19.90;99.90
9925;DHT22;5001;51.674;7.868;2023-05-20T10:47:35;20.00;99.90
9925;DHT22;5001;51.674;7.868;2023-05-20T10:50:02;20.30;99.90
9925;DHT22;5001;51.674;7.868;2023-05-20T10:52:36;20.20;99.90
9925;DHT22;5001;51.674;7.868;2023-05-20T10:55:04;20.40;99.90
9925;DHT22;5001;51.674;7.868;2023-05-20T10:57:33;20.70;99.90
9925;DHT22;5001;51.674;7.868;2023-05-20T11:00:00;21.30;99.90
9925;DHT22;5001;51.674;7.868;2023-05-20T11:02:27;21.10;99.90
9925;DHT22;5001;51.674;7.868;2023-05-20T11:04:55;20.50;99.90
9925;DHT22;5001;51.674;7.868;2023-05-20T11:07:28;20.50;99.90
9925;DHT22;5001;51.674;7.868;2023-05-20T11:09:56;20.90;99.90
9925;DHT22;5001;51.674;7.868;2023-05-20T11:12:24;20.90;99.90
9925;DHT22;5001;51.674;7.868;2023-05-20T11:14:52;20.80;99.90
9925;DHT22;5001;51.674;7.868;2023-05-20T11:17:19;21.20;99.90
9925;DHT22;5001;51.674;7.868;2023-05-20T11:19:47;20.60;99.90
9925;DHT22;5001;51.674;7.868;2023-05-20T11:22:14;20.40;99.90
9925;DHT22;5001;51.674;7.868;2023-05-20T11:24:41;20.40;99.90
9925;DHT22;5001;51.674;7.868;2023-05-20T11:27:09;20.80;99.90
9925;DHT22;5001;51.674;7.868;2023-05-20T11:29:36;21.30;99.90
9925;DHT22;5001;51.674;7.868;2023-05-20T11:32:04;20.70;99.90
9925;DHT22;5001;51.674;7.868;2023-05-20T11:34:35;21.30;99.90
9925;DHT22;5001;51.674;7.868;2023-05-20T11:37:07;21.10;99.90
9925;DHT22;5001;51.674;7.868;2023-05-20T11:39:36;21.20;99.90
9925;DHT22;5001;51.674;7.868;2023-05-20T11:42:03;20.90;99.90
9925;DHT22;5001;51.674;7.868;2023-05-20T11:44:32;21.10;99.90
9925;DHT22;5001;51.674;7.868;2023-05-20T11:47:00;21.00;99.90
9925;DHT22;5001;51.674;7.868;2023-05-20T11:49:27;20.90;99.90
9925;DHT22;5001;51.674;7.868;2023-05-20T11:51:56;21.30;99.90
9925;DHT22;5001;51.674;7.868;2023-05-20T11:54:23;21.50;99.90
9925;DHT22;5001;51.674;7.868;2023-05-20T11:56:50;21.30;99.90
9925;DHT22;5001;51.674;7.868;2023-05-20T11:59:22;20.60;99.90
9925;DHT22;5001;51.674;7.868;2023-05-20T12:01:49;20.70;99.90
9925;DHT22;5001;51.674;7.868;2023-05-20T12:04:17;20.80;99.90
9925;DHT22;5001;51.674;7.868;2023-05-20T12:06:44;21.10;99.90
9925;DHT22;5001;51.674;7.868;2023-05-20T12:09:12;21.20;99.90
9925;DHT22;5001;51.674;7.868;2023-05-20T12:11:40;20.80;99.90
9925;DHT22;5001;51.674;7.868;2023-05-20T12:14:08;20.90;99.90
9925;DHT22;5001;51.674;7.868;2023-05-20T12:16:36;21.00;99.90
9925;DHT22;5001;51.674;7.868;2023-05-20T12:19:04;20.60;99.90
9925;DHT22;5001;51.674;7.868;2023-05-20T12:21:31;20.80;99.90
9925;DHT22;5001;51.674;7.868;2023-05-20T12:23:58;20.80;99.90
9925;DHT22;5001;51.674;7.868;2023-05-20T12:26:27;20.50;99.90
9925;DHT22;5001;51.674;7.868;2023-05-20T12:28:55;20.30;99.90
9925;DHT22;5001;51.674;7.868;2023-05-20T12:31:23;20.30;99.90
9925;DHT22;5001;51.674;7.868;2023-05-20T12:33:50;20.70;99.90
9925;DHT22;5001;51.674;7.868;2023-05-20T12:36:17;21.20;99.90
9925;DHT22;5001;51.674;7.868;2023-05-20T12:38:45;21.50;99.90
9925;DHT22;5001;51.674;7.868;2023-05-20T12:41:12;20.90;99.90
9925;DHT22;5001;51.674;7.868;2023-05-20T12:43:39;20.10;99.90
9925;DHT22;5001;51.674;7.868;2023-05-20T12:46:06;20.30;99.90
9925;DHT22;5001;51.674;7.868;2023-05-20T12:48:36;20.60;99.90
9925;DHT22;5001;51.674;7.868;2023-05-20T12:51:06;20.50;99.90
9925;DHT22;5001;51.674;7.868;2023-05-20T12:53:33;19.80;99.90
9925;DHT22;5001;51.674;7.868;2023-05-20T12:56:00;19.80;99.90
9925;DHT22;5001;51.674;7.868;2023-05-20T12:58:27;19.70;99.90
9925;DHT22;5001;51.674;7.868;2023-05-20T13:00:54;19.90;99.90
9925;DHT22;5001;51.674;7.868;2023-05-20T13:03:21;19.80;99.90
9925;DHT22;5001;51.674;7.868;2023-05-20T13:05:48;19.80;99.90
9925;DHT22;5001;51.674;7.868;2023-05-20T13:08:15;19.40;99.90
9925;DHT22;5001;51.674;7.868;2023-05-20T13:10:42;19.50;99.90
9925;DHT22;5001;51.674;7.868;2023-05-20T13:13:09;19.70;99.90
9925;DHT22;5001;51.674;7.868;2023-05-20T13:15:36;19.50;99.90
9925;DHT22;5001;51.674;7.868;2023-05-20T13:18:06;19.30;99.90
9925;DHT22;5001;51.674;7.868;2023-05-20T13:20:34;19.40;99.90
9925;DHT22;5001;51.674;7.868;2023-05-20T13:23:01;19.50;99.90
9925;DHT22;5001;51.674;7.868;2023-05-20T13:25:28;19.30;99.90
9925;DHT22;5001;51.674;7.868;2023-05-20T13:27:57;19.40;99.90
9925;DHT22;5001;51.674;7.868;2023-05-20T13:30:24;19.60;99.90
9925;DHT22;5001;51.674;7.868;2023-05-20T13:32:51;20.00;99.90
9925;DHT22;5001;51.674;7.868;2023-05-20T13:35:18;20.30;99.90
9925;DHT22;5001;51.674;7.868;2023-05-20T13:37:46;20.30;99.90
9925;DHT22;5001;51.674;7.868;2023-05-20T13:40:13;20.30;99.90
9925;DHT22;5001;51.674;7.868;2023-05-20T13:42:40;20.10;99.90
9925;DHT22;5001;51.674;7.868;2023-05-20T13:45:07;19.60;99.90
9925;DHT22;5001;51.674;7.868;2023-05-20T13:47:34;19.50;99.90
9925;DHT22;5001;51.674;7.868;2023-05-20T13:50:02;19.70;99.90
9925;DHT22;5001;51.674;7.868;2023-05-20T13:52:29;19.80;99.90
9925;DHT22;5001;51.674;7.868;2023-05-20T13:54:56;19.80;99.90
9925;DHT22;5001;51.674;7.868;2023-05-20T13:57:23;19.60;99.90
9925;DHT22;5001;51.674;7.868;2023-05-20T13:59:50;19.70;99.90
9925;DHT22;5001;51.674;7.868;2023-05-20T14:02:17;19.80;99.90
9925;DHT22;5001;51.674;7.868;2023-05-20T14:04:44;19.80;99.90
9925;DHT22;5001;51.674;7.868;2023-05-20T14:07:13;19.60;99.90
9925;DHT22;5001;51.674;7.868;2023-05-20T14:09:40;19.30;99.90
9925;DHT22;5001;51.674;7.868;2023-05-20T14:12:07;19.70;99.90
9925;DHT22;5001;51.674;7.868;2023-05-20T14:14:35;20.30;99.90
9925;DHT22;5001;51.674;7.868;2023-05-20T14:17:02;20.20;99.90
9925;DHT22;5001;51.674;7.868;2023-05-20T14:19:29;19.50;99.90
9925;DHT22;5001;51.674;7.868;2023-05-20T14:21:56;19.70;99.90
9925;DHT22;5001;51.674;7.868;2023-05-20T14:24:26;20.10;99.90
9925;DHT22;5001;51.674;7.868;2023-05-20T14:26:54;19.90;99.90
9925;DHT22;5001;51.674;7.868;2023-05-20T14:29:24;19.80;99.90
9925;DHT22;5001;51.674;7.868;2023-05-20T14:31:51;19.90;99.90
9925;DHT22;5001;51.674;7.868;2023-05-20T14:34:18;19.80;99.90
9925;DHT22;5001;51.674;7.868;2023-05-20T14:36:45;19.80;99.90
9925;DHT22;5001;51.674;7.868;2023-05-20T14:39:12;19.40;99.90
9925;DHT22;5001;51.674;7.868;2023-05-20T14:41:39;19.70;99.90
9925;DHT22;5001;51.674;7.868;2023-05-20T14:44:06;19.60;99.90
9925;DHT22;5001;51.674;7.868;2023-05-20T14:46:36;19.50;99.90
9925;DHT22;5001;51.674;7.868;2023-05-20T14:49:03;19.40;99.90
9925;DHT22;5001;51.674;7.868;2023-05-20T14:51:30;19.30;99.90
9925;DHT22;5001;51.674;7.868;2023-05-20T14:53:58;19.10;99.90
9925;DHT22;5001;51.674;7.868;2023-05-20T14:56:27;18.90;99.90
9925;DHT22;5001;51.674;7.868;2023-05-20T14:58:54;18.90;99.90
9925;DHT22;5001;51.674;7.868;2023-05-20T15:01:21;18.90;99.90
9925;DHT22;5001;51.674;7.868;2023-05-20T15:03:48;19.00;99.90
9925;DHT22;5001;51.674;7.868;2023-05-20T15:06:15;18.80;99.90
9925;DHT22;5001;51.674;7.868;2023-05-20T15:08:42;18.60;99.90
9925;DHT22;5001;51.674;7.868;2023-05-20T15:11:09;18.60;99.90
9925;DHT22;5001;51.674;7.868;2023-05-20T15:13:37;18.60;99.90
9925;DHT22;5001;51.674;7.868;2023-05-20T15:16:06;18.60;99.90
9925;DHT22;5001;51.674;7.868;2023-05-20T15:18:33;18.50;99.90
9925;DHT22;5001;51.674;7.868;2023-05-20T15:21:02;18.50;99.90
9925;DHT22;5001;51.674;7.868;2023-05-20T15:23:30;19.40;99.90
9925;DHT22;5001;51.674;7.868;2023-05-20T15:25:57;18.40;99.90
9925;DHT22;5001;51.674;7.868;2023-05-20T15:28:24;18.30;99.90
9925;DHT22;5001;51.674;7.868;2023-05-20T15:30:53;18.30;99.90
9925;DHT22;5001;51.674;7.868;2023-05-20T15:33:21;18.20;99.90
9925;DHT22;5001;51.674;7.868;2023-05-20T15:35:49;18.20;99.90
9925;DHT22;5001;51.674;7.868;2023-05-20T15:38:16;18.30;99.90
9925;DHT22;5001;51.674;7.868;2023-05-20T15:40:43;18.20;99.90
9925;DHT22;5001;51.674;7.868;2023-05-20T15:43:10;18.20;99.90
9925;DHT22;5001;51.674;7.868;2023-05-20T15:45:37;18.20;99.90
9925;DHT22;5001;51.674;7.868;2023-05-20T15:48:04;18.30;99.90
9925;DHT22;5001;51.674;7.868;2023-05-20T15:50:31;18.30;99.90
9925;DHT22;5001;51.674;7.868;2023-05-20T15:52:59;18.20;99.90
9925;DHT22;5001;51.674;7.868;2023-05-20T15:55:26;18.10;99.90
9925;DHT22;5001;51.674;7.868;2023-05-20T15:57:53;18.00;99.90
9925;DHT22;5001;51.674;7.868;2023-05-20T16:00:21;18.20;99.90
9925;DHT22;5001;51.674;7.868;2023-05-20T16:02:48;18.00;99.90
9925;DHT22;5001;51.674;7.868;2023-05-20T16:05:16;17.90;99.90
9925;DHT22;5001;51.674;7.868;2023-05-20T16:07:43;17.90;99.90
9925;DHT22;5001;51.674;7.868;2023-05-20T16:10:12;18.00;99.90
9925;DHT22;5001;51.674;7.868;2023-05-20T16:12:39;18.00;99.90
9925;DHT22;5001;51.674;7.868;2023-05-20T16:15:07;17.90;99.90
9925;DHT22;5001;51.674;7.868;2023-05-20T16:17:36;18.00;99.90
9925;DHT22;5001;51.674;7.868;2023-05-20T16:20:03;18.00;99.90
9925;DHT22;5001;51.674;7.868;2023-05-20T16:22:34;18.00;99.90
9925;DHT22;5001;51.674;7.868;2023-05-20T16:25:02;18.00;99.90
9925;DHT22;5001;51.674;7.868;2023-05-20T16:27:30;17.90;99.90